sensor_id;sensor_type;location;lat;lon;timestamp;P1;durP1;ratioP1;P2;durP2;ratioP2
60213;SDS011;46080;46.904;19.688;2022-09-13T05:13:12;3.30;;;2.78;;
60213;SDS011;46080;46.904;19.688;2022-09-13T05:15:38;4.72;;;3.40;;
60213;SDS011;46080;46.904;19.688;2022-09-13T05:18:03;4.72;;;3.05;;
60213;SDS011;46080;46.904;19.688;2022-09-13T05:20:29;4.43;;;3.20;;
60213;SDS011;46080;46.904;19.688;2022-09-13T05:22:55;6.75;;;3.95;;
60213;SDS011;46080;46.904;19.688;2022-09-13T05:25:21;3.47;;;3.05;;
60213;SDS011;46080;46.904;19.688;2022-09-13T05:27:46;3.92;;;3.28;;
60213;SDS011;46080;46.904;19.688;2022-09-13T05:30:12;6.65;;;3.38;;
60213;SDS011;46080;46.904;19.688;2022-09-13T05:32:39;7.40;;;3.72;;
60213;SDS011;46080;46.904;19.688;2022-09-13T05:35:04;6.47;;;3.28;;
60213;SDS011;46080;46.904;19.688;2022-09-13T05:37:30;6.90;;;3.78;;
60213;SDS011;46080;46.904;19.688;2022-09-13T05:39:56;5.78;;;3.63;;
60213;SDS011;46080;46.904;19.688;2022-09-13T05:42:22;4.20;;;3.20;;
60213;SDS011;46080;46.904;19.688;2022-09-13T05:44:48;4.40;;;3.20;;
60213;SDS011;46080;46.904;19.688;2022-09-13T05:47:13;3.72;;;2.92;;
60213;SDS011;46080;46.904;19.688;2022-09-13T05:49:39;4.68;;;3.20;;
60213;SDS011;46080;46.904;19.688;2022-09-13T05:52:05;5.63;;;2.92;;
60213;SDS011;46080;46.904;19.688;2022-09-13T05:54:31;5.60;;;3.10;;
60213;SDS011;46080;46.904;19.688;2022-09-13T05:56:58;5.72;;;3.65;;
60213;SDS011;46080;46.904;19.688;2022-09-13T05:59:24;5.32;;;3.35;;
60213;SDS011;46080;46.904;19.688;2022-09-13T06:01:49;3.88;;;2.97;;
60213;SDS011;46080;46.904;19.688;2022-09-13T06:04:15;6.75;;;3.53;;
60213;SDS011;46080;46.904;19.688;2022-09-13T06:06:41;5.93;;;2.97;;
60213;SDS011;46080;46.904;19.688;2022-09-13T06:09:09;6.85;;;2.67;;
60213;SDS011;46080;46.904;19.688;2022-09-13T06:11:35;7.55;;;3.00;;
60213;SDS011;46080;46.904;19.688;2022-09-13T06:14:01;6.32;;;2.75;;
60213;SDS011;46080;46.904;19.688;2022-09-13T06:16:26;3.78;;;3.17;;
60213;SDS011;46080;46.904;19.688;2022-09-13T06:18:52;4.88;;;2.85;;
60213;SDS011;46080;46.904;19.688;2022-09-13T06:21:19;8.05;;;4.07;;
60213;SDS011;46080;46.904;19.688;2022-09-13T06:23:46;8.13;;;3.15;;
60213;SDS011;46080;46.904;19.688;2022-09-13T06:26:15;4.50;;;3.17;;
60213;SDS011;46080;46.904;19.688;2022-09-13T06:28:45;6.88;;;3.00;;
60213;SDS011;46080;46.904;19.688;2022-09-13T06:31:13;7.40;;;2.95;;
60213;SDS011;46080;46.904;19.688;2022-09-13T06:33:41;4.65;;;2.63;;
60213;SDS011;46080;46.904;19.688;2022-09-13T06:36:08;4.43;;;3.50;;
60213;SDS011;46080;46.904;19.688;2022-09-13T06:38:44;6.22;;;3.95;;
60213;SDS011;46080;46.904;19.688;2022-09-13T06:41:12;9.48;;;3.75;;
60213;SDS011;46080;46.904;19.688;2022-09-13T06:43:46;10.27;;;3.42;;
60213;SDS011;46080;46.904;19.688;2022-09-13T06:46:16;6.72;;;3.38;;
60213;SDS011;46080;46.904;19.688;2022-09-13T06:48:44;4.85;;;2.40;;
60213;SDS011;46080;46.904;19.688;2022-09-13T06:51:15;10.68;;;3.40;;
60213;SDS011;46080;46.904;19.688;2022-09-13T06:53:42;8.02;;;3.30;;
60213;SDS011;46080;46.904;19.688;2022-09-13T06:56:11;6.40;;;3.47;;
60213;SDS011;46080;46.904;19.688;2022-09-13T06:58:38;6.88;;;4.18;;
60213;SDS011;46080;46.904;19.688;2022-09-13T07:01:10;9.32;;;4.05;;
60213;SDS011;46080;46.904;19.688;2022-09-13T07:03:46;6.47;;;3.33;;
60213;SDS011;46080;46.904;19.688;2022-09-13T07:06:13;3.97;;;2.45;;
60213;SDS011;46080;46.904;19.688;2022-09-13T07:08:43;6.80;;;2.72;;
60213;SDS011;46080;46.904;19.688;2022-09-13T07:11:10;6.18;;;3.08;;
60213;SDS011;46080;46.904;19.688;2022-09-13T07:13:37;5.22;;;2.92;;
60213;SDS011;46080;46.904;19.688;2022-09-13T07:16:04;4.53;;;3.03;;
60213;SDS011;46080;46.904;19.688;2022-09-13T07:18:33;4.90;;;2.80;;
60213;SDS011;46080;46.904;19.688;2022-09-13T07:20:59;4.55;;;3.40;;
60213;SDS011;46080;46.904;19.688;2022-09-13T07:23:28;4.80;;;2.28;;
60213;SDS011;46080;46.904;19.688;2022-09-13T07:25:57;4.72;;;2.60;;
60213;SDS011;46080;46.904;19.688;2022-09-13T07:28:29;2.65;;;2.00;;
60213;SDS011;46080;46.904;19.688;2022-09-13T07:33:59;3.83;;;1.80;;
60213;SDS011;46080;46.904;19.688;2022-09-13T07:36:29;3.13;;;1.85;;
60213;SDS011;46080;46.904;19.688;2022-09-13T07:38:56;2.88;;;1.45;;
60213;SDS011;46080;46.904;19.688;2022-09-13T07:41:23;3.17;;;1.67;;
60213;SDS011;46080;46.904;19.688;2022-09-13T07:43:50;4.82;;;1.45;;
60213;SDS011;46080;46.904;19.688;2022-09-13T07:46:17;2.67;;;1.38;;
60213;SDS011;46080;46.904;19.688;2022-09-13T07:48:45;4.53;;;1.52;;
60213;SDS011;46080;46.904;19.688;2022-09-13T07:51:15;4.88;;;2.00;;
60213;SDS011;46080;46.904;19.688;2022-09-13T07:56:11;2.17;;;1.10;;
60213;SDS011;46080;46.904;19.688;2022-09-13T07:58:39;2.17;;;1.20;;
60213;SDS011;46080;46.904;19.688;2022-09-13T08:01:15;2.47;;;1.58;;
60213;SDS011;46080;46.904;19.688;2022-09-13T08:03:47;2.30;;;1.60;;
60213;SDS011;46080;46.904;19.688;2022-09-13T08:06:25;1.50;;;1.30;;
60213;SDS011;46080;46.904;19.688;2022-09-13T08:08:53;4.35;;;2.40;;
60213;SDS011;46080;46.904;19.688;2022-09-13T08:11:20;2.78;;;1.50;;
60213;SDS011;46080;46.904;19.688;2022-09-13T08:13:48;2.17;;;1.63;;
60213;SDS011;46080;46.904;19.688;2022-09-13T08:16:15;3.60;;;2.03;;
60213;SDS011;46080;46.904;19.688;2022-09-13T08:18:43;2.72;;;1.40;;
60213;SDS011;46080;46.904;19.688;2022-09-13T08:21:09;2.63;;;1.85;;
60213;SDS011;46080;46.904;19.688;2022-09-13T08:23:36;3.00;;;1.38;;
60213;SDS011;46080;46.904;19.688;2022-09-13T08:26:02;4.35;;;1.67;;
60213;SDS011;46080;46.904;19.688;2022-09-13T08:28:28;5.20;;;1.45;;
60213;SDS011;46080;46.904;19.688;2022-09-13T08:31:03;4.93;;;1.73;;
60213;SDS011;46080;46.904;19.688;2022-09-13T08:33:44;3.90;;;1.27;;
60213;SDS011;46080;46.904;19.688;2022-09-13T08:36:12;5.97;;;2.17;;
60213;SDS011;46080;46.904;19.688;2022-09-13T08:38:39;3.10;;;1.40;;
60213;SDS011;46080;46.904;19.688;2022-09-13T08:41:19;3.53;;;1.30;;
60213;SDS011;46080;46.904;19.688;2022-09-13T08:46:27;4.72;;;1.50;;
60213;SDS011;46080;46.904;19.688;2022-09-13T08:49:00;3.10;;;1.50;;
60213;SDS011;46080;46.904;19.688;2022-09-13T08:51:32;2.65;;;1.45;;
60213;SDS011;46080;46.904;19.688;2022-09-13T08:54:08;2.38;;;1.52;;
60213;SDS011;46080;46.904;19.688;2022-09-13T08:59:29;4.10;;;1.73;;
60213;SDS011;46080;46.904;19.688;2022-09-13T09:07:30;4.15;;;1.30;;
60213;SDS011;46080;46.904;19.688;2022-09-13T09:10:22;2.13;;;1.27;;
60213;SDS011;46080;46.904;19.688;2022-09-13T09:12:58;2.55;;;1.35;;
60213;SDS011;46080;46.904;19.688;2022-09-13T09:15:52;2.58;;;1.20;;
60213;SDS011;46080;46.904;19.688;2022-09-13T09:18:32;3.60;;;1.17;;
60213;SDS011;46080;46.904;19.688;2022-09-13T09:21:03;3.45;;;1.20;;
60213;SDS011;46080;46.904;19.688;2022-09-13T09:28:46;3.13;;;1.25;;
60213;SDS011;46080;46.904;19.688;2022-09-13T09:31:18;2.70;;;1.60;;
60213;SDS011;46080;46.904;19.688;2022-09-13T09:39:40;2.80;;;1.33;;
60213;SDS011;46080;46.904;19.688;2022-09-13T09:42:09;1.67;;;1.17;;
60213;SDS011;46080;46.904;19.688;2022-09-13T09:44:39;2.50;;;1.38;;
60213;SDS011;46080;46.904;19.688;2022-09-13T09:47:24;9.38;;;1.60;;
60213;SDS011;46080;46.904;19.688;2022-09-13T09:50:12;3.95;;;1.08;;
60213;SDS011;46080;46.904;19.688;2022-09-13T09:57:58;4.90;;;2.35;;
60213;SDS011;46080;46.904;19.688;2022-09-13T10:00:28;3.63;;;1.38;;
60213;SDS011;46080;46.904;19.688;2022-09-13T10:02:59;2.03;;;1.20;;
60213;SDS011;46080;46.904;19.688;2022-09-13T10:05:28;4.63;;;1.48;;
60213;SDS011;46080;46.904;19.688;2022-09-13T10:08:00;2.65;;;1.17;;
60213;SDS011;46080;46.904;19.688;2022-09-13T10:10:42;3.70;;;1.30;;
60213;SDS011;46080;46.904;19.688;2022-09-13T10:13:20;3.88;;;1.10;;
60213;SDS011;46080;46.904;19.688;2022-09-13T10:16:04;2.47;;;1.38;;
60213;SDS011;46080;46.904;19.688;2022-09-13T10:18:32;3.35;;;1.10;;
60213;SDS011;46080;46.904;19.688;2022-09-13T10:23:28;3.92;;;1.20;;
60213;SDS011;46080;46.904;19.688;2022-09-13T10:28:27;3.40;;;1.42;;
60213;SDS011;46080;46.904;19.688;2022-09-13T10:36:26;3.33;;;1.20;;
60213;SDS011;46080;46.904;19.688;2022-09-13T10:38:58;5.53;;;1.40;;
60213;SDS011;46080;46.904;19.688;2022-09-13T10:41:27;2.92;;;1.83;;
60213;SDS011;46080;46.904;19.688;2022-09-13T10:43:57;1.35;;;0.90;;
60213;SDS011;46080;46.904;19.688;2022-09-13T10:46:29;4.50;;;1.10;;
60213;SDS011;46080;46.904;19.688;2022-09-13T10:48:57;1.58;;;1.15;;
60213;SDS011;46080;46.904;19.688;2022-09-13T10:56:39;1.83;;;1.30;;
60213;SDS011;46080;46.904;19.688;2022-09-13T10:59:16;4.13;;;1.65;;
60213;SDS011;46080;46.904;19.688;2022-09-13T11:06:56;4.40;;;1.70;;
60213;SDS011;46080;46.904;19.688;2022-09-13T11:13:34;3.53;;;1.20;;
60213;SDS011;46080;46.904;19.688;2022-09-13T11:16:26;2.67;;;1.40;;
60213;SDS011;46080;46.904;19.688;2022-09-13T11:24:23;1.55;;;1.23;;
60213;SDS011;46080;46.904;19.688;2022-09-13T11:40:27;1.73;;;1.40;;
60213;SDS011;46080;46.904;19.688;2022-09-13T11:51:18;2.05;;;1.10;;
60213;SDS011;46080;46.904;19.688;2022-09-13T11:56:40;2.10;;;1.35;;
60213;SDS011;46080;46.904;19.688;2022-09-13T12:01:44;13.68;;;3.38;;
60213;SDS011;46080;46.904;19.688;2022-09-13T12:04:19;2.10;;;1.20;;
60213;SDS011;46080;46.904;19.688;2022-09-13T12:06:59;2.30;;;1.80;;
60213;SDS011;46080;46.904;19.688;2022-09-13T12:09:36;2.97;;;1.20;;
60213;SDS011;46080;46.904;19.688;2022-09-13T12:12:08;2.40;;;1.20;;
60213;SDS011;46080;46.904;19.688;2022-09-13T12:14:44;2.20;;;1.45;;
60213;SDS011;46080;46.904;19.688;2022-09-13T12:17:23;1.75;;;1.20;;
60213;SDS011;46080;46.904;19.688;2022-09-13T12:19:54;2.13;;;1.50;;
60213;SDS011;46080;46.904;19.688;2022-09-13T12:22:23;4.28;;;1.38;;
60213;SDS011;46080;46.904;19.688;2022-09-13T12:24:55;1.73;;;1.55;;
60213;SDS011;46080;46.904;19.688;2022-09-13T12:27:35;2.75;;;1.67;;
60213;SDS011;46080;46.904;19.688;2022-09-13T12:30:15;3.33;;;1.73;;
60213;SDS011;46080;46.904;19.688;2022-09-13T12:32:42;2.03;;;1.52;;
60213;SDS011;46080;46.904;19.688;2022-09-13T12:35:21;4.28;;;1.25;;
60213;SDS011;46080;46.904;19.688;2022-09-13T12:43:21;1.80;;;1.23;;
60213;SDS011;46080;46.904;19.688;2022-09-13T12:46:23;2.67;;;1.50;;
60213;SDS011;46080;46.904;19.688;2022-09-13T12:49:16;1.90;;;1.30;;
60213;SDS011;46080;46.904;19.688;2022-09-13T13:03:10;5.95;;;2.08;;
60213;SDS011;46080;46.904;19.688;2022-09-13T13:05:50;1.48;;;1.35;;
60213;SDS011;46080;46.904;19.688;2022-09-13T13:08:31;3.58;;;1.40;;
60213;SDS011;46080;46.904;19.688;2022-09-13T13:11:08;2.33;;;1.10;;
60213;SDS011;46080;46.904;19.688;2022-09-13T13:13:42;1.25;;;1.02;;
60213;SDS011;46080;46.904;19.688;2022-09-13T13:18:52;2.60;;;1.30;;
60213;SDS011;46080;46.904;19.688;2022-09-13T13:21:27;1.92;;;1.50;;
60213;SDS011;46080;46.904;19.688;2022-09-13T13:24:45;2.45;;;1.50;;
60213;SDS011;46080;46.904;19.688;2022-09-13T13:26:55;3.88;;;1.73;;
60213;SDS011;46080;46.904;19.688;2022-09-13T13:29:31;4.10;;;1.70;;
60213;SDS011;46080;46.904;19.688;2022-09-13T13:34:39;2.08;;;1.38;;
60213;SDS011;46080;46.904;19.688;2022-09-13T13:37:27;1.92;;;1.20;;
60213;SDS011;46080;46.904;19.688;2022-09-13T13:40:10;2.90;;;1.45;;
60213;SDS011;46080;46.904;19.688;2022-09-13T13:42:44;3.35;;;1.30;;
60213;SDS011;46080;46.904;19.688;2022-09-13T13:45:28;1.77;;;1.10;;
60213;SDS011;46080;46.904;19.688;2022-09-13T13:48:10;3.58;;;1.60;;
60213;SDS011;46080;46.904;19.688;2022-09-13T13:53:37;1.98;;;1.50;;
60213;SDS011;46080;46.904;19.688;2022-09-13T13:56:07;2.97;;;1.20;;
60213;SDS011;46080;46.904;19.688;2022-09-13T13:58:44;4.38;;;1.58;;
60213;SDS011;46080;46.904;19.688;2022-09-13T14:01:20;3.90;;;1.90;;
60213;SDS011;46080;46.904;19.688;2022-09-13T14:03:58;3.75;;;1.85;;
60213;SDS011;46080;46.904;19.688;2022-09-13T14:09:34;2.38;;;1.27;;
60213;SDS011;46080;46.904;19.688;2022-09-13T14:20:32;3.05;;;1.75;;
60213;SDS011;46080;46.904;19.688;2022-09-13T14:23:11;4.38;;;1.35;;
60213;SDS011;46080;46.904;19.688;2022-09-13T14:25:42;4.30;;;1.58;;
60213;SDS011;46080;46.904;19.688;2022-09-13T14:28:11;4.00;;;1.40;;
60213;SDS011;46080;46.904;19.688;2022-09-13T14:30:42;1.75;;;1.40;;
60213;SDS011;46080;46.904;19.688;2022-09-13T14:33:25;3.08;;;1.83;;
60213;SDS011;46080;46.904;19.688;2022-09-13T14:35:56;1.95;;;1.33;;
60213;SDS011;46080;46.904;19.688;2022-09-13T14:38:27;2.60;;;1.80;;
60213;SDS011;46080;46.904;19.688;2022-09-13T14:41:02;3.17;;;1.20;;
60213;SDS011;46080;46.904;19.688;2022-09-13T14:43:39;1.67;;;1.40;;
60213;SDS011;46080;46.904;19.688;2022-09-13T14:46:07;2.63;;;1.60;;
60213;SDS011;46080;46.904;19.688;2022-09-13T14:48:50;2.70;;;1.50;;
60213;SDS011;46080;46.904;19.688;2022-09-13T14:54:17;2.35;;;1.20;;
60213;SDS011;46080;46.904;19.688;2022-09-13T14:56:58;3.25;;;1.27;;
60213;SDS011;46080;46.904;19.688;2022-09-13T15:02:04;4.30;;;3.00;;
60213;SDS011;46080;46.904;19.688;2022-09-13T15:04:40;4.00;;;1.55;;
60213;SDS011;46080;46.904;19.688;2022-09-13T15:07:22;1.85;;;1.27;;
60213;SDS011;46080;46.904;19.688;2022-09-13T15:10:19;3.25;;;1.48;;
60213;SDS011;46080;46.904;19.688;2022-09-13T15:28:26;2.03;;;1.20;;
60213;SDS011;46080;46.904;19.688;2022-09-13T15:30:54;2.13;;;1.50;;
60213;SDS011;46080;46.904;19.688;2022-09-13T15:41:37;3.72;;;1.73;;
60213;SDS011;46080;46.904;19.688;2022-09-13T15:44:06;3.93;;;1.37;;
60213;SDS011;46080;46.904;19.688;2022-09-13T15:46:42;2.90;;;1.60;;
60213;SDS011;46080;46.904;19.688;2022-09-13T15:49:13;3.67;;;1.85;;
60213;SDS011;46080;46.904;19.688;2022-09-13T15:51:41;4.70;;;1.60;;
60213;SDS011;46080;46.904;19.688;2022-09-13T15:54:11;2.17;;;1.33;;
60213;SDS011;46080;46.904;19.688;2022-09-13T15:56:40;2.70;;;2.17;;
60213;SDS011;46080;46.904;19.688;2022-09-13T15:59:14;3.55;;;2.22;;
60213;SDS011;46080;46.904;19.688;2022-09-13T16:01:40;2.97;;;1.50;;
60213;SDS011;46080;46.904;19.688;2022-09-13T16:04:07;6.03;;;3.63;;
60213;SDS011;46080;46.904;19.688;2022-09-13T16:06:33;2.55;;;1.80;;
60213;SDS011;46080;46.904;19.688;2022-09-13T16:08:59;3.75;;;1.80;;
60213;SDS011;46080;46.904;19.688;2022-09-13T16:11:26;3.25;;;1.50;;
60213;SDS011;46080;46.904;19.688;2022-09-13T16:13:52;2.67;;;1.50;;
60213;SDS011;46080;46.904;19.688;2022-09-13T16:16:17;4.47;;;1.60;;
60213;SDS011;46080;46.904;19.688;2022-09-13T16:18:43;2.83;;;1.80;;
60213;SDS011;46080;46.904;19.688;2022-09-13T16:21:10;10.63;;;3.08;;
60213;SDS011;46080;46.904;19.688;2022-09-13T16:23:36;2.60;;;1.88;;
60213;SDS011;46080;46.904;19.688;2022-09-13T16:26:02;3.42;;;1.95;;
60213;SDS011;46080;46.904;19.688;2022-09-13T16:28:29;2.55;;;1.40;;
60213;SDS011;46080;46.904;19.688;2022-09-13T16:30:55;3.42;;;1.70;;
60213;SDS011;46080;46.904;19.688;2022-09-13T16:33:21;4.20;;;2.17;;
60213;SDS011;46080;46.904;19.688;2022-09-13T16:35:47;2.78;;;1.73;;
60213;SDS011;46080;46.904;19.688;2022-09-13T16:38:14;4.30;;;1.75;;
60213;SDS011;46080;46.904;19.688;2022-09-13T16:40:40;4.03;;;2.25;;
60213;SDS011;46080;46.904;19.688;2022-09-13T16:43:07;2.38;;;1.88;;
60213;SDS011;46080;46.904;19.688;2022-09-13T16:45:36;3.53;;;1.90;;
60213;SDS011;46080;46.904;19.688;2022-09-13T16:48:03;2.35;;;1.98;;
60213;SDS011;46080;46.904;19.688;2022-09-13T16:50:29;5.63;;;2.85;;
60213;SDS011;46080;46.904;19.688;2022-09-13T16:52:55;2.78;;;2.35;;
60213;SDS011;46080;46.904;19.688;2022-09-13T16:55:20;4.30;;;2.50;;
60213;SDS011;46080;46.904;19.688;2022-09-13T16:57:46;6.22;;;1.90;;
60213;SDS011;46080;46.904;19.688;2022-09-13T17:00:14;3.67;;;2.17;;
60213;SDS011;46080;46.904;19.688;2022-09-13T17:02:41;8.40;;;3.50;;
60213;SDS011;46080;46.904;19.688;2022-09-13T17:05:07;5.55;;;2.97;;
60213;SDS011;46080;46.904;19.688;2022-09-13T17:07:35;10.93;;;5.05;;
60213;SDS011;46080;46.904;19.688;2022-09-13T17:10:02;13.55;;;5.45;;
60213;SDS011;46080;46.904;19.688;2022-09-13T17:12:29;10.13;;;5.57;;
60213;SDS011;46080;46.904;19.688;2022-09-13T17:14:55;13.25;;;6.80;;
60213;SDS011;46080;46.904;19.688;2022-09-13T17:17:21;11.73;;;6.63;;
60213;SDS011;46080;46.904;19.688;2022-09-13T17:19:47;14.38;;;6.80;;
60213;SDS011;46080;46.904;19.688;2022-09-13T17:22:13;13.60;;;6.28;;
60213;SDS011;46080;46.904;19.688;2022-09-13T17:24:40;12.05;;;6.55;;
60213;SDS011;46080;46.904;19.688;2022-09-13T17:27:07;16.13;;;6.57;;
60213;SDS011;46080;46.904;19.688;2022-09-13T17:29:33;14.57;;;6.13;;
60213;SDS011;46080;46.904;19.688;2022-09-13T17:32:00;9.40;;;5.18;;
60213;SDS011;46080;46.904;19.688;2022-09-13T17:34:28;10.75;;;5.60;;
60213;SDS011;46080;46.904;19.688;2022-09-13T17:36:56;9.55;;;5.10;;
60213;SDS011;46080;46.904;19.688;2022-09-13T17:39:22;6.80;;;4.20;;
60213;SDS011;46080;46.904;19.688;2022-09-13T17:41:48;6.07;;;4.07;;
60213;SDS011;46080;46.904;19.688;2022-09-13T17:44:15;6.65;;;3.90;;
60213;SDS011;46080;46.904;19.688;2022-09-13T17:46:41;6.88;;;3.47;;
60213;SDS011;46080;46.904;19.688;2022-09-13T17:49:06;8.43;;;3.10;;
60213;SDS011;46080;46.904;19.688;2022-09-13T17:51:33;7.53;;;3.78;;
60213;SDS011;46080;46.904;19.688;2022-09-13T17:54:00;5.20;;;2.97;;
60213;SDS011;46080;46.904;19.688;2022-09-13T17:56:34;6.95;;;2.83;;
60213;SDS011;46080;46.904;19.688;2022-09-13T17:59:17;4.75;;;2.97;;
60213;SDS011;46080;46.904;19.688;2022-09-13T18:01:49;4.90;;;3.13;;
60213;SDS011;46080;46.904;19.688;2022-09-13T18:04:17;4.80;;;2.77;;
60213;SDS011;46080;46.904;19.688;2022-09-13T18:06:44;3.47;;;2.53;;
60213;SDS011;46080;46.904;19.688;2022-09-13T18:09:10;4.13;;;2.65;;
60213;SDS011;46080;46.904;19.688;2022-09-13T18:11:38;5.18;;;2.60;;
60213;SDS011;46080;46.904;19.688;2022-09-13T18:14:04;4.65;;;3.60;;
60213;SDS011;46080;46.904;19.688;2022-09-13T18:16:31;3.83;;;2.85;;
60213;SDS011;46080;46.904;19.688;2022-09-13T18:18:57;5.35;;;3.00;;
60213;SDS011;46080;46.904;19.688;2022-09-13T18:21:24;5.05;;;2.60;;
60213;SDS011;46080;46.904;19.688;2022-09-13T18:23:52;5.38;;;2.55;;
60213;SDS011;46080;46.904;19.688;2022-09-13T18:26:20;4.05;;;2.40;;
60213;SDS011;46080;46.904;19.688;2022-09-13T18:28:54;4.97;;;2.50;;
60213;SDS011;46080;46.904;19.688;2022-09-13T18:31:22;5.47;;;2.53;;
60213;SDS011;46080;46.904;19.688;2022-09-13T18:33:55;15.50;;;9.05;;
60213;SDS011;46080;46.904;19.688;2022-09-13T18:36:26;6.60;;;3.63;;
60213;SDS011;46080;46.904;19.688;2022-09-13T18:38:54;5.20;;;3.25;;
60213;SDS011;46080;46.904;19.688;2022-09-13T18:41:22;5.80;;;3.20;;
60213;SDS011;46080;46.904;19.688;2022-09-13T18:43:50;7.07;;;3.25;;
60213;SDS011;46080;46.904;19.688;2022-09-13T18:46:18;5.20;;;2.95;;
60213;SDS011;46080;46.904;19.688;2022-09-13T18:48:48;6.32;;;3.67;;
60213;SDS011;46080;46.904;19.688;2022-09-13T18:51:18;5.30;;;3.28;;
60213;SDS011;46080;46.904;19.688;2022-09-13T18:53:52;5.85;;;2.90;;
60213;SDS011;46080;46.904;19.688;2022-09-13T18:56:20;5.70;;;2.83;;
60213;SDS011;46080;46.904;19.688;2022-09-13T18:58:50;5.28;;;2.88;;
60213;SDS011;46080;46.904;19.688;2022-09-13T19:01:24;5.47;;;2.95;;
60213;SDS011;46080;46.904;19.688;2022-09-13T19:04:02;7.32;;;3.13;;
60213;SDS011;46080;46.904;19.688;2022-09-13T19:06:37;6.25;;;2.65;;
60213;SDS011;46080;46.904;19.688;2022-09-13T19:09:06;3.70;;;2.58;;
60213;SDS011;46080;46.904;19.688;2022-09-13T19:11:41;5.10;;;2.40;;
60213;SDS011;46080;46.904;19.688;2022-09-13T19:14:13;4.85;;;2.35;;
60213;SDS011;46080;46.904;19.688;2022-09-13T19:16:55;3.67;;;2.33;;
60213;SDS011;46080;46.904;19.688;2022-09-13T19:19:22;5.85;;;2.20;;
60213;SDS011;46080;46.904;19.688;2022-09-13T19:21:48;4.13;;;2.67;;
60213;SDS011;46080;46.904;19.688;2022-09-13T19:24:14;5.22;;;2.72;;
60213;SDS011;46080;46.904;19.688;2022-09-13T19:26:41;6.45;;;2.70;;
60213;SDS011;46080;46.904;19.688;2022-09-13T19:29:12;9.23;;;3.90;;
60213;SDS011;46080;46.904;19.688;2022-09-13T19:31:40;6.60;;;3.90;;
60213;SDS011;46080;46.904;19.688;2022-09-13T19:34:08;10.55;;;5.05;;
60213;SDS011;46080;46.904;19.688;2022-09-13T19:36:35;11.98;;;6.18;;
60213;SDS011;46080;46.904;19.688;2022-09-13T19:39:03;9.50;;;5.40;;
60213;SDS011;46080;46.904;19.688;2022-09-13T19:41:31;7.07;;;4.43;;
60213;SDS011;46080;46.904;19.688;2022-09-13T19:43:57;4.55;;;3.03;;
60213;SDS011;46080;46.904;19.688;2022-09-13T19:46:33;7.57;;;3.15;;
60213;SDS011;46080;46.904;19.688;2022-09-13T19:49:02;6.43;;;3.50;;
60213;SDS011;46080;46.904;19.688;2022-09-13T19:51:29;7.60;;;4.13;;
60213;SDS011;46080;46.904;19.688;2022-09-13T19:53:57;8.63;;;3.20;;
60213;SDS011;46080;46.904;19.688;2022-09-13T19:56:26;7.07;;;3.22;;
60213;SDS011;46080;46.904;19.688;2022-09-13T19:58:57;6.15;;;4.70;;
60213;SDS011;46080;46.904;19.688;2022-09-13T20:01:25;6.88;;;2.70;;
60213;SDS011;46080;46.904;19.688;2022-09-13T20:03:56;7.75;;;3.85;;
60213;SDS011;46080;46.904;19.688;2022-09-13T20:06:25;5.22;;;3.20;;
60213;SDS011;46080;46.904;19.688;2022-09-13T20:08:54;9.05;;;3.97;;
60213;SDS011;46080;46.904;19.688;2022-09-13T20:11:22;8.05;;;3.67;;
60213;SDS011;46080;46.904;19.688;2022-09-13T20:13:52;6.45;;;3.30;;
60213;SDS011;46080;46.904;19.688;2022-09-13T20:16:18;7.43;;;3.28;;
60213;SDS011;46080;46.904;19.688;2022-09-13T20:18:47;5.25;;;3.75;;
60213;SDS011;46080;46.904;19.688;2022-09-13T20:21:13;6.47;;;3.17;;
60213;SDS011;46080;46.904;19.688;2022-09-13T20:23:39;5.20;;;3.22;;
60213;SDS011;46080;46.904;19.688;2022-09-13T20:26:16;6.72;;;3.13;;
60213;SDS011;46080;46.904;19.688;2022-09-13T20:28:45;8.48;;;3.00;;
60213;SDS011;46080;46.904;19.688;2022-09-13T20:31:12;4.80;;;3.35;;
60213;SDS011;46080;46.904;19.688;2022-09-13T20:33:38;7.43;;;3.17;;
60213;SDS011;46080;46.904;19.688;2022-09-13T20:36:05;6.38;;;2.97;;
60213;SDS011;46080;46.904;19.688;2022-09-13T20:38:34;8.18;;;3.03;;
60213;SDS011;46080;46.904;19.688;2022-09-13T20:41:02;6.88;;;2.78;;
60213;SDS011;46080;46.904;19.688;2022-09-13T20:43:32;9.55;;;2.75;;
60213;SDS011;46080;46.904;19.688;2022-09-13T20:46:00;5.55;;;2.45;;
60213;SDS011;46080;46.904;19.688;2022-09-13T20:48:26;3.90;;;2.72;;
60213;SDS011;46080;46.904;19.688;2022-09-13T20:51:11;9.98;;;2.53;;
60213;SDS011;46080;46.904;19.688;2022-09-13T20:53:41;5.63;;;3.00;;
60213;SDS011;46080;46.904;19.688;2022-09-13T20:56:08;5.70;;;2.47;;
60213;SDS011;46080;46.904;19.688;2022-09-13T20:58:36;8.98;;;2.53;;
60213;SDS011;46080;46.904;19.688;2022-09-13T21:01:06;6.30;;;2.58;;
60213;SDS011;46080;46.904;19.688;2022-09-13T21:03:37;3.70;;;2.23;;
60213;SDS011;46080;46.904;19.688;2022-09-13T21:06:05;7.15;;;2.50;;
60213;SDS011;46080;46.904;19.688;2022-09-13T21:08:32;6.50;;;2.60;;
60213;SDS011;46080;46.904;19.688;2022-09-13T21:11:20;5.47;;;2.30;;
60213;SDS011;46080;46.904;19.688;2022-09-13T21:13:47;4.55;;;2.30;;
60213;SDS011;46080;46.904;19.688;2022-09-13T21:16:17;3.75;;;2.55;;
60213;SDS011;46080;46.904;19.688;2022-09-13T21:18:45;5.03;;;2.53;;
60213;SDS011;46080;46.904;19.688;2022-09-13T21:21:12;2.92;;;2.10;;
60213;SDS011;46080;46.904;19.688;2022-09-13T21:23:46;4.68;;;2.72;;
60213;SDS011;46080;46.904;19.688;2022-09-13T21:26:13;3.25;;;2.60;;
60213;SDS011;46080;46.904;19.688;2022-09-13T21:28:41;3.28;;;2.40;;
60213;SDS011;46080;46.904;19.688;2022-09-13T21:31:12;3.15;;;2.30;;
60213;SDS011;46080;46.904;19.688;2022-09-13T21:33:42;11.50;;;6.70;;
60213;SDS011;46080;46.904;19.688;2022-09-13T21:36:09;10.18;;;6.78;;
60213;SDS011;46080;46.904;19.688;2022-09-13T21:38:36;6.40;;;2.70;;
60213;SDS011;46080;46.904;19.688;2022-09-13T21:41:12;3.38;;;2.30;;
60213;SDS011;46080;46.904;19.688;2022-09-13T21:43:39;5.60;;;2.65;;
60213;SDS011;46080;46.904;19.688;2022-09-13T21:46:07;2.85;;;2.05;;
60213;SDS011;46080;46.904;19.688;2022-09-13T21:48:34;3.10;;;2.03;;
60213;SDS011;46080;46.904;19.688;2022-09-13T21:53:33;3.25;;;1.88;;
60213;SDS011;46080;46.904;19.688;2022-09-13T21:56:09;3.50;;;1.77;;
60213;SDS011;46080;46.904;19.688;2022-09-13T21:58:37;2.80;;;1.88;;
60213;SDS011;46080;46.904;19.688;2022-09-13T22:01:04;4.60;;;2.20;;
60213;SDS011;46080;46.904;19.688;2022-09-13T22:03:35;3.83;;;2.08;;
60213;SDS011;46080;46.904;19.688;2022-09-13T22:06:02;6.25;;;2.70;;
60213;SDS011;46080;46.904;19.688;2022-09-13T22:08:30;2.80;;;2.30;;
60213;SDS011;46080;46.904;19.688;2022-09-13T22:11:00;5.65;;;2.80;;
60213;SDS011;46080;46.904;19.688;2022-09-13T22:13:35;6.70;;;2.10;;
60213;SDS011;46080;46.904;19.688;2022-09-13T22:16:08;5.93;;;2.53;;
60213;SDS011;46080;46.904;19.688;2022-09-13T22:18:34;3.83;;;2.70;;
60213;SDS011;46080;46.904;19.688;2022-09-13T22:21:04;3.35;;;2.35;;
60213;SDS011;46080;46.904;19.688;2022-09-13T22:23:30;3.72;;;2.40;;
60213;SDS011;46080;46.904;19.688;2022-09-13T22:25:56;3.58;;;2.30;;
60213;SDS011;46080;46.904;19.688;2022-09-13T22:28:22;4.80;;;2.42;;
60213;SDS011;46080;46.904;19.688;2022-09-13T22:30:48;3.70;;;2.35;;
60213;SDS011;46080;46.904;19.688;2022-09-13T22:33:13;3.20;;;2.13;;
60213;SDS011;46080;46.904;19.688;2022-09-13T22:35:39;5.32;;;3.15;;
60213;SDS011;46080;46.904;19.688;2022-09-13T22:38:04;4.57;;;3.33;;
60213;SDS011;46080;46.904;19.688;2022-09-13T22:40:30;4.30;;;2.80;;
60213;SDS011;46080;46.904;19.688;2022-09-13T22:42:56;4.53;;;3.00;;